createdAt,value
2023-04-07T00:01:39.838Z,14.10
2023-04-07T00:04:50.473Z,12.18
2023-04-07T00:07:24.068Z,14.52
2023-04-07T00:09:52.771Z,14.38
2023-04-07T00:12:39.508Z,13.38
2023-04-07T00:15:38.716Z,10.82
2023-04-07T00:18:16.122Z,15.80
2023-04-07T00:20:46.117Z,14.52
2023-04-07T00:23:24.719Z,11.93
2023-04-07T00:25:53.209Z,13.35
2023-04-07T00:28:21.668Z,12.38
2023-04-07T00:30:50.414Z,13.25
2023-04-07T00:33:19.677Z,12.27
2023-04-07T00:35:48.292Z,12.43
2023-04-07T00:38:17.601Z,11.75
2023-04-07T00:41:01.476Z,15.18
2023-04-07T00:43:30.487Z,12.07
2023-04-07T00:46:00.057Z,13.77
2023-04-07T00:48:53.432Z,11.05
2023-04-07T00:51:23.690Z,11.00
2023-04-07T00:53:56.883Z,15.63
2023-04-07T00:56:31.100Z,12.25
2023-04-07T00:58:59.617Z,12.90
2023-04-07T01:01:32.475Z,12.07
2023-04-07T01:04:16.255Z,10.68
2023-04-07T01:06:52.004Z,10.10
2023-04-07T01:09:26.959Z,10.63
2023-04-07T01:12:18.107Z,11.73
2023-04-07T01:14:53.420Z,12.27
2023-04-07T01:17:27.276Z,12.20
2023-04-07T01:20:08.496Z,9.52
2023-04-07T01:22:43.168Z,14.73
2023-04-07T01:25:30.830Z,12.40
2023-04-07T01:28:23.339Z,10.63
2023-04-07T01:30:56.638Z,11.88
2023-04-07T01:33:28.456Z,16.30
2023-04-07T01:35:59.946Z,14.55
2023-04-07T01:55:27.137Z,13.32
2023-04-07T01:57:55.444Z,14.18
2023-04-07T02:00:23.590Z,13.77
2023-04-07T02:03:00.945Z,15.40
2023-04-07T02:05:31.530Z,13.65
2023-04-07T02:08:03.963Z,13.80
2023-04-07T02:10:38.429Z,13.05
2023-04-07T02:13:09.246Z,16.02
2023-04-07T02:15:38.639Z,15.50
2023-04-07T02:18:13.252Z,13.70
2023-04-07T02:20:42.371Z,13.23
2023-04-07T02:23:10.849Z,13.35
2023-04-07T02:25:40.543Z,17.20
2023-04-07T02:28:08.826Z,20.10
2023-04-07T02:30:37.595Z,14.65
2023-04-07T02:33:06.355Z,17.92
2023-04-07T02:35:34.426Z,17.30
2023-04-07T02:38:05.012Z,13.73
2023-04-07T02:40:33.311Z,14.90
2023-04-07T02:43:02.946Z,11.82
2023-04-07T02:45:31.015Z,15.13
2023-04-07T02:47:59.524Z,14.73
2023-04-07T02:50:29.167Z,16.05
2023-04-07T02:52:57.446Z,13.48
2023-04-07T02:55:25.786Z,12.57
2023-04-07T02:57:53.974Z,12.43
2023-04-07T03:00:23.661Z,14.25
2023-04-07T03:02:52.131Z,13.43
2023-04-07T03:05:20.755Z,16.98
2023-04-07T03:07:49.043Z,15.95
2023-04-07T03:10:17.464Z,15.45
2023-04-07T03:12:46.041Z,14.55
2023-04-07T03:15:15.201Z,16.10
2023-04-07T03:17:46.204Z,18.85
2023-04-07T03:20:17.614Z,19.05
2023-04-07T03:22:47.610Z,21.88
2023-04-07T03:25:15.757Z,19.90
2023-04-07T03:27:43.891Z,20.15
2023-04-07T03:30:13.107Z,20.35
2023-04-07T03:32:41.646Z,20.30
2023-04-07T03:35:12.187Z,20.60
2023-04-07T03:37:40.373Z,20.90
2023-04-07T03:40:09.593Z,18.50
2023-04-07T03:42:38.174Z,19.52
2023-04-07T03:45:07.516Z,20.67
2023-04-07T03:47:35.702Z,19.38
2023-04-07T03:50:04.004Z,20.52
2023-04-07T03:52:33.642Z,16.85
2023-04-07T03:55:01.776Z,19.60
2023-04-07T03:57:29.932Z,22.25
2023-04-07T03:59:58.194Z,20.63
2023-04-07T04:02:26.562Z,21.17
2023-04-07T04:04:54.866Z,23.30
2023-04-07T04:07:23.573Z,23.70
2023-04-07T04:09:53.142Z,22.23
2023-04-07T04:12:21.684Z,23.25
2023-04-07T04:14:49.992Z,24.02
2023-04-07T04:17:18.156Z,21.83
2023-04-07T04:19:46.371Z,24.30
2023-04-07T04:22:14.718Z,24.95
2023-04-07T04:24:42.926Z,21.65
2023-04-07T04:27:12.518Z,22.80
2023-04-07T04:29:41.039Z,30.95
2023-04-07T04:32:09.116Z,26.63
2023-04-07T04:34:37.430Z,27.08
2023-04-07T04:37:05.742Z,24.17
2023-04-07T04:39:33.881Z,20.95
2023-04-07T04:42:02.306Z,23.85
2023-04-07T04:44:32.133Z,27.42
2023-04-07T04:47:03.584Z,23.67
2023-04-07T04:49:32.213Z,24.58
2023-04-07T04:52:00.761Z,25.50
2023-04-07T04:54:29.389Z,29.77
2023-04-07T04:56:57.721Z,23.75
2023-04-07T04:59:27.114Z,23.38
2023-04-07T05:01:56.671Z,25.70
2023-04-07T05:04:25.086Z,22.73
2023-04-07T05:06:53.502Z,23.02
2023-04-07T05:09:21.630Z,24.40
2023-04-07T05:11:49.871Z,24.88
2023-04-07T05:14:18.215Z,23.02
2023-04-07T05:16:46.323Z,24.30
2023-04-07T05:19:16.046Z,29.90
2023-04-07T05:21:44.683Z,25.90
2023-04-07T05:24:12.833Z,26.92
2023-04-07T05:26:41.178Z,24.40
2023-04-07T05:29:09.791Z,29.05
2023-04-07T05:31:37.942Z,30.05
2023-04-07T05:34:06.099Z,27.55
2023-04-07T05:36:37.109Z,27.67
2023-04-07T05:39:05.645Z,29.50
2023-04-07T05:41:33.771Z,27.95
2023-04-07T05:44:02.046Z,29.13
2023-04-07T05:46:30.349Z,28.02
2023-04-07T05:49:00.727Z,31.02
2023-04-07T05:51:33.287Z,34.13
2023-04-07T05:54:04.713Z,29.88
2023-04-07T05:56:32.944Z,27.42
2023-04-07T05:59:01.977Z,25.88
2023-04-07T06:01:31.041Z,24.35
2023-04-07T06:03:59.794Z,19.33
2023-04-07T06:06:28.701Z,18.38
2023-04-07T06:08:56.915Z,19.70
2023-04-07T06:11:27.567Z,18.85
2023-04-07T06:13:55.939Z,17.70
2023-04-07T06:16:24.135Z,15.40
2023-04-07T06:18:52.425Z,16.80
2023-04-07T06:21:20.944Z,17.35
2023-04-07T06:23:49.389Z,16.83
2023-04-07T06:26:17.848Z,19.05
2023-04-07T06:28:47.788Z,16.58
2023-04-07T06:31:16.728Z,19.58
2023-04-07T06:33:45.020Z,17.98
2023-04-07T06:36:13.714Z,17.20
2023-04-07T06:38:41.916Z,17.05
2023-04-07T06:41:13.494Z,18.40
2023-04-07T06:43:41.890Z,18.85
2023-04-07T06:46:11.623Z,19.83
2023-04-07T06:48:39.809Z,23.17
2023-04-07T06:51:08.134Z,23.73
2023-04-07T06:53:36.486Z,17.27
2023-04-07T06:56:06.205Z,18.73
2023-04-07T06:58:34.679Z,17.25
2023-04-07T07:01:03.922Z,16.40
2023-04-07T07:03:34.493Z,15.35
2023-04-07T07:06:03.433Z,12.57
2023-04-07T07:08:31.649Z,14.80
2023-04-07T07:10:59.992Z,14.02
2023-04-07T07:13:28.512Z,15.80
2023-04-07T07:15:56.976Z,14.00
2023-04-07T07:18:25.479Z,16.75
2023-04-07T07:20:54.992Z,14.90
2023-04-07T07:23:23.112Z,14.18
2023-04-07T07:25:51.852Z,12.10
2023-04-07T07:28:21.729Z,14.18
2023-04-07T07:30:50.033Z,18.42
2023-04-07T07:33:18.790Z,14.65
2023-04-07T07:35:47.174Z,16.15
2023-04-07T07:38:16.703Z,16.02
2023-04-07T07:40:45.235Z,19.42
2023-04-07T07:43:13.361Z,14.15
2023-04-07T07:45:41.611Z,13.25
2023-04-07T07:48:10.058Z,12.35
2023-04-07T07:50:38.248Z,13.73
2023-04-07T07:53:06.399Z,13.07
2023-04-07T07:55:36.195Z,13.23
2023-04-07T07:58:04.425Z,16.73
2023-04-07T08:00:32.601Z,9.93
2023-04-07T08:03:01.452Z,12.20
2023-04-07T08:05:29.654Z,9.48
2023-04-07T08:07:57.742Z,12.10
2023-04-07T08:10:26.350Z,10.75
2023-04-07T08:12:55.902Z,11.13
2023-04-07T08:15:24.059Z,9.00
2023-04-07T08:17:54.608Z,12.32
2023-04-07T08:20:24.054Z,12.48
2023-04-07T08:22:52.391Z,12.25
2023-04-07T08:25:21.077Z,15.18
2023-04-07T08:27:49.436Z,14.57
2023-04-07T08:30:21.111Z,12.63
2023-04-07T08:32:50.817Z,10.50
2023-04-07T08:35:19.015Z,15.10
2023-04-07T08:37:47.518Z,13.02
2023-04-07T08:40:16.398Z,10.45
2023-04-07T08:42:48.460Z,10.45
2023-04-07T08:45:20.130Z,9.38
2023-04-07T08:47:50.987Z,11.95
2023-04-07T08:50:20.971Z,9.57
2023-04-07T08:52:54.712Z,7.75
2023-04-07T08:55:23.471Z,10.05
2023-04-07T08:57:52.546Z,9.25
2023-04-07T09:00:22.920Z,6.35
2023-04-07T09:02:52.484Z,6.50
2023-04-07T09:05:21.508Z,6.97
2023-04-07T09:07:49.808Z,4.53
2023-04-07T09:10:18.506Z,7.70
2023-04-07T09:12:46.706Z,12.57
2023-04-07T09:15:15.012Z,91.32
2023-04-07T09:17:44.944Z,19.58
2023-04-07T09:20:13.189Z,20.90
2023-04-07T09:22:43.847Z,24.90
2023-04-07T09:25:17.487Z,23.05
2023-04-07T09:30:27.068Z,10.55
2023-04-07T09:32:57.258Z,8.85
2023-04-07T09:35:28.852Z,7.35
2023-04-07T09:38:04.833Z,8.52
2023-04-07T09:40:33.730Z,7.00
2023-04-07T09:43:02.752Z,6.68
2023-04-07T09:45:36.278Z,8.38
2023-04-07T09:48:20.680Z,6.68
2023-04-07T09:50:51.613Z,9.20
2023-04-07T09:53:20.295Z,6.38
2023-04-07T09:55:49.939Z,6.28
2023-04-07T09:58:18.742Z,7.43
2023-04-07T10:00:47.245Z,7.45
2023-04-07T10:03:17.279Z,7.72
2023-04-07T10:05:47.042Z,7.70
2023-04-07T10:08:15.757Z,6.70
2023-04-07T10:10:45.310Z,5.72
2023-04-07T10:13:14.410Z,7.47
2023-04-07T10:15:42.846Z,7.70
2023-04-07T10:18:11.740Z,6.43
2023-04-07T10:20:42.813Z,7.30
2023-04-07T10:23:18.876Z,6.80
2023-04-07T10:25:48.912Z,7.43
2023-04-07T10:28:18.505Z,5.32
2023-04-07T10:30:49.106Z,7.45
2023-04-07T10:33:18.570Z,4.80
2023-04-07T10:36:07.239Z,8.95
2023-04-07T10:38:36.405Z,7.68
2023-04-07T10:41:33.731Z,6.38
2023-04-07T10:44:02.961Z,4.88
2023-04-07T10:47:06.464Z,4.28
2023-04-07T10:49:35.234Z,8.57
2023-04-07T10:52:26.349Z,7.97
2023-04-07T10:55:27.591Z,6.35
2023-04-07T10:58:17.786Z,8.20
2023-04-07T11:01:19.531Z,6.88
2023-04-07T11:04:04.912Z,5.43
2023-04-07T11:06:33.160Z,6.50
2023-04-07T11:09:03.304Z,6.95
2023-04-07T11:11:40.898Z,7.55
2023-04-07T11:14:09.317Z,8.20
2023-04-07T11:16:39.833Z,5.20
2023-04-07T11:19:08.385Z,5.97
2023-04-07T11:21:37.747Z,7.03
2023-04-07T11:24:07.581Z,8.40
2023-04-07T11:26:40.529Z,12.50
2023-04-07T11:29:09.515Z,3.78
2023-04-07T11:31:37.968Z,3.72
2023-04-07T11:34:07.455Z,6.95
2023-04-07T11:36:37.036Z,6.97
2023-04-07T11:39:07.314Z,6.50
2023-04-07T11:41:47.055Z,7.82
2023-04-07T11:44:15.593Z,5.43
2023-04-07T11:46:54.958Z,9.07
2023-04-07T11:49:25.074Z,3.75
2023-04-07T11:52:01.104Z,7.40
2023-04-07T11:54:41.532Z,4.80
2023-04-07T11:57:12.843Z,4.05
2023-04-07T11:59:42.330Z,5.35
2023-04-07T12:02:10.725Z,8.35
2023-04-07T12:04:41.182Z,5.72
2023-04-07T12:07:10.603Z,7.93
2023-04-07T12:09:41.026Z,5.90
2023-04-07T12:12:11.039Z,4.50
2023-04-07T12:14:39.289Z,6.80
2023-04-07T12:17:09.454Z,5.30
2023-04-07T12:19:39.803Z,5.20
2023-04-07T12:22:08.713Z,4.72
2023-04-07T12:24:39.561Z,5.72
2023-04-07T12:27:10.164Z,4.78
2023-04-07T12:29:38.454Z,4.22
2023-04-07T12:32:06.842Z,4.78
2023-04-07T12:34:37.516Z,4.22
2023-04-07T12:37:06.185Z,5.50
2023-04-07T12:39:35.145Z,5.68
2023-04-07T12:42:03.566Z,6.20
2023-04-07T12:44:33.150Z,6.80
2023-04-07T12:47:04.078Z,9.05
2023-04-07T12:49:32.554Z,7.35
2023-04-07T12:52:00.759Z,9.05
2023-04-07T12:54:29.123Z,8.15
2023-04-07T12:56:58.685Z,8.80
2023-04-07T12:59:27.003Z,8.77
2023-04-07T13:01:57.008Z,7.68
2023-04-07T13:04:27.033Z,8.40
2023-04-07T13:06:55.441Z,7.65
2023-04-07T13:09:23.712Z,8.15
2023-04-07T13:11:51.981Z,8.15
2023-04-07T13:14:20.148Z,11.32
2023-04-07T13:16:49.081Z,7.60
2023-04-07T13:19:18.815Z,9.48
2023-04-07T13:21:48.131Z,9.30
2023-04-07T13:24:17.139Z,6.32
2023-04-07T13:26:45.400Z,7.70
2023-04-07T13:29:13.516Z,8.55
2023-04-07T13:31:41.794Z,11.48
2023-04-07T13:34:10.159Z,10.02
2023-04-07T13:36:39.684Z,5.97
2023-04-07T13:39:09.148Z,7.90
2023-04-07T13:41:37.376Z,7.93
2023-04-07T13:44:05.471Z,8.70
2023-04-07T13:46:33.830Z,9.55
2023-04-07T13:49:02.308Z,8.00
2023-04-07T13:51:30.506Z,6.13
2023-04-07T13:54:00.506Z,6.68
2023-04-07T13:56:28.770Z,7.25
2023-04-07T13:58:56.962Z,6.88
2023-04-07T14:01:25.493Z,6.22
2023-04-07T14:03:54.468Z,4.88
2023-04-07T14:06:23.001Z,7.63
2023-04-07T14:08:52.042Z,7.47
2023-04-07T14:11:22.841Z,7.68
2023-04-07T14:13:52.092Z,6.32
2023-04-07T14:16:20.536Z,9.63
2023-04-07T14:18:49.471Z,7.45
2023-04-07T14:21:17.747Z,7.00
2023-04-07T14:23:46.008Z,8.20
2023-04-07T14:26:14.838Z,8.85
2023-04-07T14:28:44.436Z,7.63
2023-04-07T14:31:16.979Z,5.55
2023-04-07T14:33:45.759Z,4.97
2023-04-07T14:36:15.985Z,4.85
2023-04-07T14:38:44.905Z,4.88
2023-04-07T14:41:13.242Z,2.38
2023-04-07T14:43:43.565Z,5.45
2023-04-07T14:46:12.633Z,6.38
2023-04-07T14:48:40.798Z,3.75
2023-04-07T14:51:14.113Z,5.07
2023-04-07T14:53:43.420Z,4.13
2023-04-07T14:56:11.727Z,4.95
2023-04-07T14:58:40.859Z,4.55
2023-04-07T15:01:10.457Z,4.03
2023-04-07T15:03:39.391Z,5.63
2023-04-07T15:06:13.773Z,6.32
2023-04-07T15:08:42.061Z,7.03
2023-04-07T15:11:10.668Z,6.40
2023-04-07T15:13:39.433Z,6.65
2023-04-07T15:16:10.600Z,6.18
2023-04-07T15:18:41.414Z,4.80
2023-04-07T15:21:10.089Z,5.35
2023-04-07T15:23:39.039Z,6.85
2023-04-07T15:26:07.845Z,5.70
2023-04-07T15:28:36.121Z,6.32
2023-04-07T15:31:08.390Z,6.30
2023-04-07T15:33:39.251Z,6.88
2023-04-07T15:36:08.457Z,8.10
2023-04-07T15:38:38.806Z,7.75
2023-04-07T15:41:07.534Z,4.78
2023-04-07T15:43:37.649Z,4.47
2023-04-07T15:46:06.398Z,5.90
2023-04-07T15:48:34.932Z,6.38
2023-04-07T15:51:04.489Z,7.63
2023-04-07T15:53:32.868Z,3.60
2023-04-07T15:56:01.695Z,5.22
2023-04-07T15:58:30.080Z,4.90
2023-04-07T16:00:58.652Z,6.18
2023-04-07T16:03:28.495Z,5.28
2023-04-07T16:05:56.796Z,5.63
2023-04-07T16:08:26.397Z,5.80
2023-04-07T16:10:55.131Z,9.43
2023-04-07T16:13:23.253Z,7.55
2023-04-07T16:15:51.390Z,4.97
2023-04-07T16:18:20.055Z,6.85
2023-04-07T16:20:48.276Z,5.45
2023-04-07T16:23:16.496Z,5.35
2023-04-07T16:25:46.430Z,7.70
2023-04-07T16:28:14.617Z,6.20
2023-04-07T16:30:43.746Z,6.65
2023-04-07T16:33:13.170Z,6.82
2023-04-07T16:35:41.528Z,8.85
2023-04-07T16:38:09.623Z,6.85
2023-04-07T16:40:38.298Z,7.97
2023-04-07T16:43:09.100Z,5.25
2023-04-07T16:45:37.227Z,6.35
2023-04-07T16:48:05.661Z,6.63
2023-04-07T16:50:34.064Z,7.72
2023-04-07T16:53:02.615Z,7.07
2023-04-07T16:55:30.888Z,7.55
2023-04-07T16:57:59.002Z,5.78
2023-04-07T17:00:28.565Z,7.07
2023-04-07T17:02:57.091Z,6.05
2023-04-07T17:05:25.571Z,5.50
2023-04-07T17:07:54.706Z,9.43
2023-04-07T17:10:24.472Z,6.88
2023-04-07T17:12:56.107Z,6.90
2023-04-07T17:15:24.432Z,5.55
2023-04-07T17:17:54.741Z,6.93
2023-04-07T17:20:23.551Z,9.15
2023-04-07T17:22:51.653Z,5.25
2023-04-07T17:25:20.446Z,7.35
2023-04-07T17:27:49.130Z,8.80
2023-04-07T17:30:18.245Z,10.80
2023-04-07T17:32:46.779Z,7.88
2023-04-07T17:35:17.212Z,7.70
2023-04-07T17:37:46.024Z,6.82
2023-04-07T17:40:14.549Z,8.55
2023-04-07T17:42:43.036Z,7.32
2023-04-07T17:45:11.856Z,8.70
2023-04-07T17:47:40.522Z,6.25
2023-04-07T17:50:09.727Z,9.73
2023-04-07T17:52:39.353Z,8.30
2023-04-07T17:55:09.216Z,8.95
2023-04-07T17:57:38.527Z,7.80
2023-04-07T18:00:07.940Z,7.43
2023-04-07T18:02:36.627Z,6.15
2023-04-07T18:05:07.620Z,8.40
2023-04-07T18:07:35.814Z,6.65
2023-04-07T18:10:06.342Z,8.25
2023-04-07T18:12:34.479Z,6.95
2023-04-07T18:15:02.652Z,8.13
2023-04-07T18:17:31.409Z,8.30
2023-04-07T18:19:59.596Z,7.57
2023-04-07T18:22:28.110Z,5.63
2023-04-07T18:24:56.764Z,9.48
2023-04-07T18:27:28.423Z,6.65
2023-04-07T18:29:57.393Z,10.23
2023-04-07T18:32:25.744Z,10.13
2023-04-07T18:34:54.948Z,11.73
2023-04-07T18:37:23.428Z,9.55
2023-04-07T18:39:52.213Z,8.90
2023-04-07T18:42:20.493Z,11.40
2023-04-07T18:44:50.372Z,9.73
2023-04-07T18:47:18.667Z,9.40
2023-04-07T18:49:47.174Z,8.60
2023-04-07T18:52:15.610Z,11.55
2023-04-07T18:54:43.813Z,6.80
2023-04-07T18:57:12.706Z,10.43
2023-04-07T18:59:41.172Z,10.85
2023-04-07T19:02:10.830Z,7.30
2023-04-07T19:04:39.141Z,10.13
2023-04-07T19:07:07.872Z,12.23
2023-04-07T19:09:37.831Z,12.85
2023-04-07T19:12:06.151Z,8.20
2023-04-07T19:14:34.838Z,7.78
2023-04-07T19:17:03.565Z,7.53
2023-04-07T19:19:33.483Z,10.13
2023-04-07T19:22:02.077Z,11.27
2023-04-07T19:24:30.371Z,10.98
2023-04-07T19:26:58.550Z,7.05
2023-04-07T19:29:27.402Z,8.75
2023-04-07T19:31:57.212Z,10.50
2023-04-07T19:34:25.579Z,13.27
2023-04-07T19:36:55.786Z,10.38
2023-04-07T19:39:23.972Z,10.60
2023-04-07T19:41:52.539Z,11.27
2023-04-07T19:44:21.321Z,11.35
2023-04-07T19:46:49.778Z,11.32
2023-04-07T19:49:17.863Z,10.98
2023-04-07T19:51:46.367Z,11.98
2023-04-07T19:54:16.050Z,10.90
2023-04-07T19:56:44.232Z,10.35
2023-04-07T19:59:12.860Z,9.27
2023-04-07T20:01:41.188Z,12.05
2023-04-07T20:04:09.460Z,9.88
2023-04-07T20:06:40.185Z,9.13
2023-04-07T20:09:08.327Z,10.05
2023-04-07T20:11:38.085Z,9.88
2023-04-07T20:14:06.368Z,12.23
2023-04-07T20:16:34.525Z,9.68
2023-04-07T20:19:04.279Z,9.93
2023-04-07T20:21:33.676Z,10.02
2023-04-07T20:24:01.877Z,10.93
2023-04-07T20:26:30.174Z,13.98
2023-04-07T20:28:59.908Z,10.27
2023-04-07T20:31:28.422Z,15.02
2023-04-07T20:33:57.057Z,9.85
2023-04-07T20:36:26.173Z,11.35
2023-04-07T20:38:56.013Z,8.05
2023-04-07T20:41:24.404Z,11.07
2023-04-07T20:43:54.844Z,10.52
2023-04-07T20:46:24.495Z,10.13
2023-04-07T20:48:52.780Z,11.15
2023-04-07T20:51:21.244Z,11.07
2023-04-07T20:53:49.388Z,12.70
2023-04-07T20:56:17.671Z,14.43
2023-04-07T20:58:46.699Z,9.88
2023-04-07T21:01:14.858Z,12.00
2023-04-07T21:03:44.746Z,11.88
2023-04-07T21:06:13.152Z,11.05
2023-04-07T21:08:41.332Z,13.57
2023-04-07T21:11:09.554Z,10.60
2023-04-07T21:13:37.772Z,12.73
2023-04-07T21:16:06.243Z,11.07
2023-04-07T21:18:34.748Z,10.65
2023-04-07T21:21:04.744Z,11.90
2023-04-07T21:23:32.854Z,13.70
2023-04-07T21:26:04.704Z,17.42
2023-04-07T21:28:33.092Z,14.50
2023-04-07T21:31:01.520Z,15.82
2023-04-07T21:33:29.786Z,16.95
2023-04-07T21:35:58.656Z,14.43
2023-04-07T21:38:28.162Z,13.23
2023-04-07T21:40:57.609Z,14.35
2023-04-07T21:43:28.909Z,15.93
2023-04-07T21:45:57.312Z,17.00
2023-04-07T21:48:25.454Z,13.50
2023-04-07T21:50:53.684Z,14.32
2023-04-07T21:53:21.813Z,14.85
2023-04-07T21:55:52.003Z,17.95
2023-04-07T21:58:20.248Z,16.80
2023-04-07T22:00:48.803Z,15.55
2023-04-07T22:03:17.773Z,16.40
2023-04-07T22:05:46.834Z,13.93
2023-04-07T22:08:15.056Z,24.33
2023-04-07T22:10:43.188Z,20.48
2023-04-07T22:13:12.905Z,19.00
2023-04-07T22:15:41.260Z,19.38
2023-04-07T22:18:09.407Z,18.75
2023-04-07T22:20:37.618Z,16.98
2023-04-07T22:23:05.847Z,14.30
2023-04-07T22:25:33.984Z,17.13
2023-04-07T22:28:02.258Z,17.63
2023-04-07T22:30:32.013Z,24.85
2023-04-07T22:33:00.545Z,19.65
2023-04-07T22:35:28.943Z,14.45
2023-04-07T22:37:57.241Z,16.05
2023-04-07T22:40:25.975Z,16.05
2023-04-07T22:42:54.455Z,17.58
2023-04-07T22:45:22.566Z,15.20
2023-04-07T22:47:52.849Z,15.65
2023-04-07T22:50:21.544Z,15.60
2023-04-07T22:52:49.771Z,19.17
2023-04-07T22:55:18.476Z,17.95
2023-04-07T22:57:46.802Z,16.35
2023-04-07T23:00:15.499Z,20.58
2023-04-07T23:02:44.042Z,20.50
2023-04-07T23:05:13.846Z,17.27
2023-04-07T23:07:42.045Z,15.70
2023-04-07T23:10:10.565Z,16.15
2023-04-07T23:12:39.175Z,18.77
2023-04-07T23:15:08.314Z,13.57
2023-04-07T23:17:36.901Z,16.30
2023-04-07T23:20:05.541Z,16.25
2023-04-07T23:22:35.003Z,17.58
2023-04-07T23:25:03.220Z,15.32
2023-04-07T23:27:31.436Z,15.38
2023-04-07T23:29:59.652Z,11.93
2023-04-07T23:32:27.851Z,15.80
2023-04-07T23:34:56.311Z,15.93
2023-04-07T23:37:24.418Z,16.95
2023-04-07T23:39:54.310Z,12.52
2023-04-07T23:42:22.553Z,14.27
2023-04-07T23:44:50.727Z,16.67
2023-04-07T23:47:19.377Z,16.13
2023-04-07T23:49:47.570Z,15.65
2023-04-07T23:52:16.390Z,12.77
2023-04-07T23:54:44.980Z,12.77
2023-04-07T23:57:14.645Z,15.43
2023-04-07T23:59:42.744Z,15.18
